RJDB(METAR)
07/27 18:00
RJDB 270900Z 02012KT 9999 FEW020 27/25 Q1001 RMK A2957=
戻る
トップページへ戻る
IMOC Co,.Ltd.